sensor_id;sensor_type;location;lat;lon;timestamp;temperature;humidity
22065;DHT22;11197;53.110;8.468;2022-07-12T00:02:11;17.10;99.90
22065;DHT22;11197;53.110;8.468;2022-07-12T00:04:37;17.10;99.90
22065;DHT22;11197;53.110;8.468;2022-07-12T00:07:03;17.10;99.90
22065;DHT22;11197;53.110;8.468;2022-07-12T00:09:29;17.10;99.90
22065;DHT22;11197;53.110;8.468;2022-07-12T00:11:55;17.10;99.90
22065;DHT22;11197;53.110;8.468;2022-07-12T00:14:22;17.10;99.90
22065;DHT22;11197;53.110;8.468;2022-07-12T00:16:48;17.00;99.90
22065;DHT22;11197;53.110;8.468;2022-07-12T00:19:15;17.10;99.90
22065;DHT22;11197;53.110;8.468;2022-07-12T00:21:41;17.10;99.90
22065;DHT22;11197;53.110;8.468;2022-07-12T00:24:07;17.10;99.90
22065;DHT22;11197;53.110;8.468;2022-07-12T00:26:32;17.00;99.90
22065;DHT22;11197;53.110;8.468;2022-07-12T00:28:58;17.00;99.90
22065;DHT22;11197;53.110;8.468;2022-07-12T00:31:24;17.00;99.90
22065;DHT22;11197;53.110;8.468;2022-07-12T00:33:50;17.00;99.90
22065;DHT22;11197;53.110;8.468;2022-07-12T00:36:16;17.00;99.90
22065;DHT22;11197;53.110;8.468;2022-07-12T00:38:42;17.10;99.90
22065;DHT22;11197;53.110;8.468;2022-07-12T00:41:08;17.00;99.90
22065;DHT22;11197;53.110;8.468;2022-07-12T00:43:34;17.00;99.90
22065;DHT22;11197;53.110;8.468;2022-07-12T00:46:00;17.00;99.90
22065;DHT22;11197;53.110;8.468;2022-07-12T00:48:26;17.00;99.90
22065;DHT22;11197;53.110;8.468;2022-07-12T00:50:52;17.00;99.90
22065;DHT22;11197;53.110;8.468;2022-07-12T00:53:18;17.00;99.90
22065;DHT22;11197;53.110;8.468;2022-07-12T00:55:55;17.00;99.90
22065;DHT22;11197;53.110;8.468;2022-07-12T00:58:25;17.00;99.90
22065;DHT22;11197;53.110;8.468;2022-07-12T01:00:51;16.90;99.90
22065;DHT22;11197;53.110;8.468;2022-07-12T01:03:18;16.90;99.90
22065;DHT22;11197;53.110;8.468;2022-07-12T01:05:46;16.90;99.90
22065;DHT22;11197;53.110;8.468;2022-07-12T01:08:13;16.90;99.90
22065;DHT22;11197;53.110;8.468;2022-07-12T01:10:40;16.90;99.90
22065;DHT22;11197;53.110;8.468;2022-07-12T01:13:06;16.90;99.90
22065;DHT22;11197;53.110;8.468;2022-07-12T01:15:33;16.90;99.90
22065;DHT22;11197;53.110;8.468;2022-07-12T01:18:00;16.90;99.90
22065;DHT22;11197;53.110;8.468;2022-07-12T01:20:26;16.90;99.90
22065;DHT22;11197;53.110;8.468;2022-07-12T01:22:54;16.90;99.90
22065;DHT22;11197;53.110;8.468;2022-07-12T01:25:20;16.90;99.90
22065;DHT22;11197;53.110;8.468;2022-07-12T01:27:46;16.90;99.90
22065;DHT22;11197;53.110;8.468;2022-07-12T01:30:12;16.90;99.90
22065;DHT22;11197;53.110;8.468;2022-07-12T01:32:39;16.90;99.90
22065;DHT22;11197;53.110;8.468;2022-07-12T01:35:05;16.90;99.90
22065;DHT22;11197;53.110;8.468;2022-07-12T01:37:37;16.90;99.90
22065;DHT22;11197;53.110;8.468;2022-07-12T01:40:07;16.90;99.90
22065;DHT22;11197;53.110;8.468;2022-07-12T01:42:35;16.80;99.90
22065;DHT22;11197;53.110;8.468;2022-07-12T01:45:02;16.80;99.90
22065;DHT22;11197;53.110;8.468;2022-07-12T01:47:29;16.80;99.90
22065;DHT22;11197;53.110;8.468;2022-07-12T01:49:55;16.80;99.90
22065;DHT22;11197;53.110;8.468;2022-07-12T01:52:23;16.80;99.90
22065;DHT22;11197;53.110;8.468;2022-07-12T01:54:49;16.80;99.90
22065;DHT22;11197;53.110;8.468;2022-07-12T01:57:15;16.80;99.90
22065;DHT22;11197;53.110;8.468;2022-07-12T01:59:42;16.80;99.90
22065;DHT22;11197;53.110;8.468;2022-07-12T02:02:08;16.80;99.90
22065;DHT22;11197;53.110;8.468;2022-07-12T02:04:35;16.80;99.90
22065;DHT22;11197;53.110;8.468;2022-07-12T02:07:01;16.80;99.90
22065;DHT22;11197;53.110;8.468;2022-07-12T02:09:27;16.80;99.90
22065;DHT22;11197;53.110;8.468;2022-07-12T02:11:53;16.80;99.90
22065;DHT22;11197;53.110;8.468;2022-07-12T02:14:20;16.80;99.90
22065;DHT22;11197;53.110;8.468;2022-07-12T02:16:46;16.70;99.90
22065;DHT22;11197;53.110;8.468;2022-07-12T02:19:13;16.80;99.90
22065;DHT22;11197;53.110;8.468;2022-07-12T02:21:39;16.80;99.90
22065;DHT22;11197;53.110;8.468;2022-07-12T02:24:06;16.80;99.90
22065;DHT22;11197;53.110;8.468;2022-07-12T02:26:36;16.70;99.90
22065;DHT22;11197;53.110;8.468;2022-07-12T02:29:03;16.70;99.90
22065;DHT22;11197;53.110;8.468;2022-07-12T02:31:29;16.80;99.90
22065;DHT22;11197;53.110;8.468;2022-07-12T02:33:55;16.70;99.90
22065;DHT22;11197;53.110;8.468;2022-07-12T02:36:21;16.70;99.90
22065;DHT22;11197;53.110;8.468;2022-07-12T02:38:47;16.70;99.90
22065;DHT22;11197;53.110;8.468;2022-07-12T02:41:13;16.60;99.90
22065;DHT22;11197;53.110;8.468;2022-07-12T02:43:39;16.60;99.90
22065;DHT22;11197;53.110;8.468;2022-07-12T02:46:10;16.60;99.90
22065;DHT22;11197;53.110;8.468;2022-07-12T02:48:36;16.60;99.90
22065;DHT22;11197;53.110;8.468;2022-07-12T02:51:04;16.60;99.90
22065;DHT22;11197;53.110;8.468;2022-07-12T02:53:30;16.60;99.90
22065;DHT22;11197;53.110;8.468;2022-07-12T02:55:56;16.60;99.90
22065;DHT22;11197;53.110;8.468;2022-07-12T02:58:22;16.60;99.90
22065;DHT22;11197;53.110;8.468;2022-07-12T03:00:48;16.60;99.90
22065;DHT22;11197;53.110;8.468;2022-07-12T03:03:14;16.60;99.90
22065;DHT22;11197;53.110;8.468;2022-07-12T03:05:41;16.60;99.90
22065;DHT22;11197;53.110;8.468;2022-07-12T03:08:11;16.60;99.90
22065;DHT22;11197;53.110;8.468;2022-07-12T03:10:38;16.60;99.90
22065;DHT22;11197;53.110;8.468;2022-07-12T03:13:05;16.60;99.90
22065;DHT22;11197;53.110;8.468;2022-07-12T03:15:32;16.60;99.90
22065;DHT22;11197;53.110;8.468;2022-07-12T03:17:58;16.60;99.90
22065;DHT22;11197;53.110;8.468;2022-07-12T03:20:25;16.60;99.90
22065;DHT22;11197;53.110;8.468;2022-07-12T03:22:51;16.60;99.90
22065;DHT22;11197;53.110;8.468;2022-07-12T03:25:22;16.60;99.90
22065;DHT22;11197;53.110;8.468;2022-07-12T03:27:48;16.60;99.90
22065;DHT22;11197;53.110;8.468;2022-07-12T03:30:15;16.60;99.90
22065;DHT22;11197;53.110;8.468;2022-07-12T03:32:42;16.60;99.90
22065;DHT22;11197;53.110;8.468;2022-07-12T03:35:08;16.60;99.90
22065;DHT22;11197;53.110;8.468;2022-07-12T03:37:46;16.60;99.90
22065;DHT22;11197;53.110;8.468;2022-07-12T03:40:15;16.60;99.90
22065;DHT22;11197;53.110;8.468;2022-07-12T03:42:45;16.60;99.90
22065;DHT22;11197;53.110;8.468;2022-07-12T03:45:12;16.60;99.90
22065;DHT22;11197;53.110;8.468;2022-07-12T03:47:39;16.60;99.90
22065;DHT22;11197;53.110;8.468;2022-07-12T03:50:07;16.60;99.90
22065;DHT22;11197;53.110;8.468;2022-07-12T03:52:33;16.60;99.90
22065;DHT22;11197;53.110;8.468;2022-07-12T03:55:00;16.60;99.90
22065;DHT22;11197;53.110;8.468;2022-07-12T03:57:30;16.60;99.90
22065;DHT22;11197;53.110;8.468;2022-07-12T03:59:56;16.60;99.90
22065;DHT22;11197;53.110;8.468;2022-07-12T04:02:23;16.60;99.90
22065;DHT22;11197;53.110;8.468;2022-07-12T04:04:50;16.60;99.90
22065;DHT22;11197;53.110;8.468;2022-07-12T04:07:16;16.60;99.90
22065;DHT22;11197;53.110;8.468;2022-07-12T04:09:42;16.60;99.90
22065;DHT22;11197;53.110;8.468;2022-07-12T04:12:09;16.60;99.90
22065;DHT22;11197;53.110;8.468;2022-07-12T04:14:35;16.60;99.90
22065;DHT22;11197;53.110;8.468;2022-07-12T04:17:01;16.60;99.90
22065;DHT22;11197;53.110;8.468;2022-07-12T04:19:26;16.60;99.90
22065;DHT22;11197;53.110;8.468;2022-07-12T04:21:57;16.50;99.90
22065;DHT22;11197;53.110;8.468;2022-07-12T04:24:23;16.50;99.90
22065;DHT22;11197;53.110;8.468;2022-07-12T04:26:49;16.50;99.90
22065;DHT22;11197;53.110;8.468;2022-07-12T04:29:18;16.50;99.90
22065;DHT22;11197;53.110;8.468;2022-07-12T04:31:44;16.50;99.90
22065;DHT22;11197;53.110;8.468;2022-07-12T04:34:10;16.50;99.90
22065;DHT22;11197;53.110;8.468;2022-07-12T04:36:36;16.50;99.90
22065;DHT22;11197;53.110;8.468;2022-07-12T04:39:03;16.50;99.90
22065;DHT22;11197;53.110;8.468;2022-07-12T04:41:28;16.50;99.90
22065;DHT22;11197;53.110;8.468;2022-07-12T04:43:54;16.60;99.90
22065;DHT22;11197;53.110;8.468;2022-07-12T04:46:20;16.60;99.90
22065;DHT22;11197;53.110;8.468;2022-07-12T04:48:46;16.60;99.90
22065;DHT22;11197;53.110;8.468;2022-07-12T04:51:12;16.60;99.90
22065;DHT22;11197;53.110;8.468;2022-07-12T04:53:40;16.60;99.90
22065;DHT22;11197;53.110;8.468;2022-07-12T04:56:06;16.60;99.90
22065;DHT22;11197;53.110;8.468;2022-07-12T04:58:32;16.60;99.90
22065;DHT22;11197;53.110;8.468;2022-07-12T05:01:01;16.60;99.90
22065;DHT22;11197;53.110;8.468;2022-07-12T05:03:27;16.60;99.90
22065;DHT22;11197;53.110;8.468;2022-07-12T05:05:54;16.60;99.90
22065;DHT22;11197;53.110;8.468;2022-07-12T05:08:20;16.60;99.90
22065;DHT22;11197;53.110;8.468;2022-07-12T05:10:46;16.60;99.90
22065;DHT22;11197;53.110;8.468;2022-07-12T05:13:12;16.60;99.90
22065;DHT22;11197;53.110;8.468;2022-07-12T05:15:38;16.60;99.90
22065;DHT22;11197;53.110;8.468;2022-07-12T05:18:04;16.60;99.90
22065;DHT22;11197;53.110;8.468;2022-07-12T05:20:30;16.60;99.90
22065;DHT22;11197;53.110;8.468;2022-07-12T05:22:57;16.60;99.90
22065;DHT22;11197;53.110;8.468;2022-07-12T05:25:23;16.60;99.90
22065;DHT22;11197;53.110;8.468;2022-07-12T05:27:49;16.60;99.90
22065;DHT22;11197;53.110;8.468;2022-07-12T05:30:14;16.60;99.90
22065;DHT22;11197;53.110;8.468;2022-07-12T05:32:40;16.70;99.90
22065;DHT22;11197;53.110;8.468;2022-07-12T05:35:07;16.70;99.90
22065;DHT22;11197;53.110;8.468;2022-07-12T05:37:33;16.70;99.90
22065;DHT22;11197;53.110;8.468;2022-07-12T05:39:58;16.80;99.90
22065;DHT22;11197;53.110;8.468;2022-07-12T05:42:24;16.80;99.90
22065;DHT22;11197;53.110;8.468;2022-07-12T05:44:50;16.80;99.90
22065;DHT22;11197;53.110;8.468;2022-07-12T05:47:16;16.90;99.90
22065;DHT22;11197;53.110;8.468;2022-07-12T05:49:42;16.90;99.90
22065;DHT22;11197;53.110;8.468;2022-07-12T05:52:08;17.00;99.90
22065;DHT22;11197;53.110;8.468;2022-07-12T05:54:53;17.00;99.90
22065;DHT22;11197;53.110;8.468;2022-07-12T05:57:19;17.10;99.90
22065;DHT22;11197;53.110;8.468;2022-07-12T05:59:45;17.10;99.90
22065;DHT22;11197;53.110;8.468;2022-07-12T06:02:11;17.10;99.90
22065;DHT22;11197;53.110;8.468;2022-07-12T06:04:37;17.10;99.90
22065;DHT22;11197;53.110;8.468;2022-07-12T06:07:03;17.20;99.90
22065;DHT22;11197;53.110;8.468;2022-07-12T06:09:29;17.20;99.90
22065;DHT22;11197;53.110;8.468;2022-07-12T06:11:55;17.30;99.90
22065;DHT22;11197;53.110;8.468;2022-07-12T06:14:21;17.40;99.90
22065;DHT22;11197;53.110;8.468;2022-07-12T06:16:47;17.40;99.90
22065;DHT22;11197;53.110;8.468;2022-07-12T06:19:13;17.40;99.90
22065;DHT22;11197;53.110;8.468;2022-07-12T06:21:39;17.50;99.90
22065;DHT22;11197;53.110;8.468;2022-07-12T06:24:05;17.50;99.90
22065;DHT22;11197;53.110;8.468;2022-07-12T06:26:31;17.60;99.90
22065;DHT22;11197;53.110;8.468;2022-07-12T06:28:56;17.70;99.90
22065;DHT22;11197;53.110;8.468;2022-07-12T06:31:22;17.80;99.90
22065;DHT22;11197;53.110;8.468;2022-07-12T06:33:51;17.80;99.90
22065;DHT22;11197;53.110;8.468;2022-07-12T06:36:17;17.80;99.90
22065;DHT22;11197;53.110;8.468;2022-07-12T06:38:43;17.90;99.90
22065;DHT22;11197;53.110;8.468;2022-07-12T06:41:09;18.00;99.90
22065;DHT22;11197;53.110;8.468;2022-07-12T06:43:35;18.00;99.90
22065;DHT22;11197;53.110;8.468;2022-07-12T06:46:00;18.20;99.90
22065;DHT22;11197;53.110;8.468;2022-07-12T06:48:26;18.20;99.90
22065;DHT22;11197;53.110;8.468;2022-07-12T06:50:52;18.30;99.90
22065;DHT22;11197;53.110;8.468;2022-07-12T06:53:18;18.30;99.90
22065;DHT22;11197;53.110;8.468;2022-07-12T06:55:44;18.30;99.90
22065;DHT22;11197;53.110;8.468;2022-07-12T06:58:10;18.40;99.90
22065;DHT22;11197;53.110;8.468;2022-07-12T07:00:36;18.40;99.90
22065;DHT22;11197;53.110;8.468;2022-07-12T07:03:04;18.50;99.90
22065;DHT22;11197;53.110;8.468;2022-07-12T07:05:30;18.50;99.90
22065;DHT22;11197;53.110;8.468;2022-07-12T07:07:56;18.50;99.90
22065;DHT22;11197;53.110;8.468;2022-07-12T07:10:22;18.50;99.90
22065;DHT22;11197;53.110;8.468;2022-07-12T07:12:48;18.50;99.90
22065;DHT22;11197;53.110;8.468;2022-07-12T07:15:14;18.60;99.90
22065;DHT22;11197;53.110;8.468;2022-07-12T07:17:41;18.60;99.90
22065;DHT22;11197;53.110;8.468;2022-07-12T07:20:09;18.70;99.90
22065;DHT22;11197;53.110;8.468;2022-07-12T07:22:36;18.70;99.90
22065;DHT22;11197;53.110;8.468;2022-07-12T07:25:03;18.70;99.90
22065;DHT22;11197;53.110;8.468;2022-07-12T07:27:28;18.70;99.90
22065;DHT22;11197;53.110;8.468;2022-07-12T07:29:54;18.70;99.90
22065;DHT22;11197;53.110;8.468;2022-07-12T07:32:39;18.80;99.90
22065;DHT22;11197;53.110;8.468;2022-07-12T07:35:05;18.80;99.90
22065;DHT22;11197;53.110;8.468;2022-07-12T07:37:34;18.90;99.90
22065;DHT22;11197;53.110;8.468;2022-07-12T07:40:01;18.80;99.90
22065;DHT22;11197;53.110;8.468;2022-07-12T07:42:27;18.90;99.90
22065;DHT22;11197;53.110;8.468;2022-07-12T07:44:53;18.90;99.90
22065;DHT22;11197;53.110;8.468;2022-07-12T07:47:19;18.90;99.90
22065;DHT22;11197;53.110;8.468;2022-07-12T07:49:44;19.00;99.90
22065;DHT22;11197;53.110;8.468;2022-07-12T07:52:10;19.00;99.90
22065;DHT22;11197;53.110;8.468;2022-07-12T07:54:36;19.10;99.90
22065;DHT22;11197;53.110;8.468;2022-07-12T07:57:02;19.10;99.90
22065;DHT22;11197;53.110;8.468;2022-07-12T07:59:29;19.20;99.90
22065;DHT22;11197;53.110;8.468;2022-07-12T08:01:55;19.40;99.90
22065;DHT22;11197;53.110;8.468;2022-07-12T08:04:21;19.40;99.90
22065;DHT22;11197;53.110;8.468;2022-07-12T08:06:48;19.50;99.90
22065;DHT22;11197;53.110;8.468;2022-07-12T08:09:14;19.60;99.90
22065;DHT22;11197;53.110;8.468;2022-07-12T08:11:41;19.70;99.90
22065;DHT22;11197;53.110;8.468;2022-07-12T08:14:07;19.70;99.90
22065;DHT22;11197;53.110;8.468;2022-07-12T08:16:34;19.70;99.90
22065;DHT22;11197;53.110;8.468;2022-07-12T08:19:00;19.70;99.90
22065;DHT22;11197;53.110;8.468;2022-07-12T08:21:26;19.80;99.90
22065;DHT22;11197;53.110;8.468;2022-07-12T08:23:52;19.80;99.90
22065;DHT22;11197;53.110;8.468;2022-07-12T08:26:19;19.80;99.90
22065;DHT22;11197;53.110;8.468;2022-07-12T08:28:45;19.90;99.90
22065;DHT22;11197;53.110;8.468;2022-07-12T08:31:11;20.00;99.90
22065;DHT22;11197;53.110;8.468;2022-07-12T08:33:39;20.00;99.90
22065;DHT22;11197;53.110;8.468;2022-07-12T08:36:07;20.10;99.90
22065;DHT22;11197;53.110;8.468;2022-07-12T08:38:35;20.20;99.90
22065;DHT22;11197;53.110;8.468;2022-07-12T08:41:03;20.20;99.90
22065;DHT22;11197;53.110;8.468;2022-07-12T08:43:29;20.30;99.90
22065;DHT22;11197;53.110;8.468;2022-07-12T08:46:03;20.40;99.90
22065;DHT22;11197;53.110;8.468;2022-07-12T08:48:29;20.40;99.90
22065;DHT22;11197;53.110;8.468;2022-07-12T08:51:07;20.40;99.90
22065;DHT22;11197;53.110;8.468;2022-07-12T08:53:33;20.40;99.90
22065;DHT22;11197;53.110;8.468;2022-07-12T08:55:59;20.40;99.90
22065;DHT22;11197;53.110;8.468;2022-07-12T08:58:26;20.60;99.90
22065;DHT22;11197;53.110;8.468;2022-07-12T09:00:52;20.60;99.90
22065;DHT22;11197;53.110;8.468;2022-07-12T09:03:19;20.60;99.90
22065;DHT22;11197;53.110;8.468;2022-07-12T09:05:53;20.60;99.90
22065;DHT22;11197;53.110;8.468;2022-07-12T09:08:31;20.60;99.90
22065;DHT22;11197;53.110;8.468;2022-07-12T09:11:03;20.60;99.90
22065;DHT22;11197;53.110;8.468;2022-07-12T09:16:18;20.70;99.90
22065;DHT22;11197;53.110;8.468;2022-07-12T09:18:45;20.80;99.90
22065;DHT22;11197;53.110;8.468;2022-07-12T09:21:27;20.90;99.90
22065;DHT22;11197;53.110;8.468;2022-07-12T09:23:58;20.90;99.90
22065;DHT22;11197;53.110;8.468;2022-07-12T09:26:32;20.90;99.90
22065;DHT22;11197;53.110;8.468;2022-07-12T09:29:11;20.90;99.90
22065;DHT22;11197;53.110;8.468;2022-07-12T09:31:49;21.00;99.90
22065;DHT22;11197;53.110;8.468;2022-07-12T09:34:34;21.00;99.90
22065;DHT22;11197;53.110;8.468;2022-07-12T09:37:19;21.00;99.90
22065;DHT22;11197;53.110;8.468;2022-07-12T09:39:46;21.10;99.90
22065;DHT22;11197;53.110;8.468;2022-07-12T09:42:14;21.10;99.90
22065;DHT22;11197;53.110;8.468;2022-07-12T09:44:41;21.10;99.90
22065;DHT22;11197;53.110;8.468;2022-07-12T09:47:10;21.20;99.90
22065;DHT22;11197;53.110;8.468;2022-07-12T09:49:43;21.20;99.90
22065;DHT22;11197;53.110;8.468;2022-07-12T09:52:23;21.20;99.90
22065;DHT22;11197;53.110;8.468;2022-07-12T09:54:51;21.30;99.90
22065;DHT22;11197;53.110;8.468;2022-07-12T09:57:32;21.30;99.90
22065;DHT22;11197;53.110;8.468;2022-07-12T10:00:00;21.30;99.90
22065;DHT22;11197;53.110;8.468;2022-07-12T10:02:27;21.30;99.90
22065;DHT22;11197;53.110;8.468;2022-07-12T10:04:54;21.40;99.90
22065;DHT22;11197;53.110;8.468;2022-07-12T10:07:22;21.40;99.90
22065;DHT22;11197;53.110;8.468;2022-07-12T10:09:52;21.40;99.90
22065;DHT22;11197;53.110;8.468;2022-07-12T10:12:20;21.40;99.90
22065;DHT22;11197;53.110;8.468;2022-07-12T10:17:34;21.50;99.90
22065;DHT22;11197;53.110;8.468;2022-07-12T10:20:20;21.50;99.90
22065;DHT22;11197;53.110;8.468;2022-07-12T10:22:53;21.60;99.90
22065;DHT22;11197;53.110;8.468;2022-07-12T10:25:32;21.60;99.90
22065;DHT22;11197;53.110;8.468;2022-07-12T10:28:02;21.70;99.90
22065;DHT22;11197;53.110;8.468;2022-07-12T10:30:30;21.70;99.90
22065;DHT22;11197;53.110;8.468;2022-07-12T10:32:58;21.70;99.90
22065;DHT22;11197;53.110;8.468;2022-07-12T10:35:29;21.70;99.90
22065;DHT22;11197;53.110;8.468;2022-07-12T10:38:16;21.80;99.90
22065;DHT22;11197;53.110;8.468;2022-07-12T10:40:44;21.90;99.90
22065;DHT22;11197;53.110;8.468;2022-07-12T10:45:43;22.00;99.90
22065;DHT22;11197;53.110;8.468;2022-07-12T10:53:32;22.20;99.90
22065;DHT22;11197;53.110;8.468;2022-07-12T10:58:57;22.30;99.90
22065;DHT22;11197;53.110;8.468;2022-07-12T11:03:55;22.40;99.90
22065;DHT22;11197;53.110;8.468;2022-07-12T11:06:25;22.40;99.90
22065;DHT22;11197;53.110;8.468;2022-07-12T11:08:53;22.50;99.90
22065;DHT22;11197;53.110;8.468;2022-07-12T11:11:19;22.40;99.90
22065;DHT22;11197;53.110;8.468;2022-07-12T11:13:45;22.50;99.90
22065;DHT22;11197;53.110;8.468;2022-07-12T11:16:11;22.50;99.90
22065;DHT22;11197;53.110;8.468;2022-07-12T11:18:38;22.50;99.90
22065;DHT22;11197;53.110;8.468;2022-07-12T11:21:04;22.60;99.90
22065;DHT22;11197;53.110;8.468;2022-07-12T11:23:31;22.60;99.90
22065;DHT22;11197;53.110;8.468;2022-07-12T11:25:59;22.70;99.90
22065;DHT22;11197;53.110;8.468;2022-07-12T11:28:26;22.80;99.90
22065;DHT22;11197;53.110;8.468;2022-07-12T11:30:54;22.80;99.90
22065;DHT22;11197;53.110;8.468;2022-07-12T11:33:30;22.80;99.90
22065;DHT22;11197;53.110;8.468;2022-07-12T11:35:59;23.00;99.90
22065;DHT22;11197;53.110;8.468;2022-07-12T11:38:25;23.00;99.90
22065;DHT22;11197;53.110;8.468;2022-07-12T11:40:59;23.10;99.90
22065;DHT22;11197;53.110;8.468;2022-07-12T11:43:29;23.10;99.90
22065;DHT22;11197;53.110;8.468;2022-07-12T11:45:56;23.10;99.90
22065;DHT22;11197;53.110;8.468;2022-07-12T11:48:23;23.20;99.90
22065;DHT22;11197;53.110;8.468;2022-07-12T11:50:54;23.20;99.90
22065;DHT22;11197;53.110;8.468;2022-07-12T11:53:25;23.30;99.90
22065;DHT22;11197;53.110;8.468;2022-07-12T11:55:53;23.30;99.90
22065;DHT22;11197;53.110;8.468;2022-07-12T11:58:22;23.40;99.90
22065;DHT22;11197;53.110;8.468;2022-07-12T12:00:50;23.40;99.90
22065;DHT22;11197;53.110;8.468;2022-07-12T12:03:17;23.40;99.90
22065;DHT22;11197;53.110;8.468;2022-07-12T12:05:45;23.40;99.90
22065;DHT22;11197;53.110;8.468;2022-07-12T12:08:12;23.50;99.90
22065;DHT22;11197;53.110;8.468;2022-07-12T12:10:40;23.60;99.90
22065;DHT22;11197;53.110;8.468;2022-07-12T12:13:13;23.70;99.90
22065;DHT22;11197;53.110;8.468;2022-07-12T12:15:41;23.70;99.90
22065;DHT22;11197;53.110;8.468;2022-07-12T12:18:08;23.70;99.90
22065;DHT22;11197;53.110;8.468;2022-07-12T12:20:37;23.80;99.90
22065;DHT22;11197;53.110;8.468;2022-07-12T12:23:05;23.90;99.90
22065;DHT22;11197;53.110;8.468;2022-07-12T12:25:33;23.90;99.60
22065;DHT22;11197;53.110;8.468;2022-07-12T12:28:00;23.90;99.20
22065;DHT22;11197;53.110;8.468;2022-07-12T12:30:28;23.90;99.10
22065;DHT22;11197;53.110;8.468;2022-07-12T12:32:59;24.00;99.40
22065;DHT22;11197;53.110;8.468;2022-07-12T12:35:33;24.00;99.50
22065;DHT22;11197;53.110;8.468;2022-07-12T12:38:01;24.00;99.90
22065;DHT22;11197;53.110;8.468;2022-07-12T12:40:29;24.10;99.90
22065;DHT22;11197;53.110;8.468;2022-07-12T12:43:09;24.10;99.90
22065;DHT22;11197;53.110;8.468;2022-07-12T12:45:53;24.20;99.90
22065;DHT22;11197;53.110;8.468;2022-07-12T12:48:24;24.30;99.20
22065;DHT22;11197;53.110;8.468;2022-07-12T12:50:52;24.30;99.90
22065;DHT22;11197;53.110;8.468;2022-07-12T12:53:23;24.40;99.90
22065;DHT22;11197;53.110;8.468;2022-07-12T12:55:51;24.50;99.30
22065;DHT22;11197;53.110;8.468;2022-07-12T12:58:18;24.50;99.00
22065;DHT22;11197;53.110;8.468;2022-07-12T13:00:46;24.60;99.30
22065;DHT22;11197;53.110;8.468;2022-07-12T13:03:14;24.60;98.70
22065;DHT22;11197;53.110;8.468;2022-07-12T13:05:41;24.70;97.40
22065;DHT22;11197;53.110;8.468;2022-07-12T13:08:08;24.80;97.00
22065;DHT22;11197;53.110;8.468;2022-07-12T13:10:35;24.80;95.80
22065;DHT22;11197;53.110;8.468;2022-07-12T13:13:03;24.80;94.60
22065;DHT22;11197;53.110;8.468;2022-07-12T13:15:29;24.90;93.90
22065;DHT22;11197;53.110;8.468;2022-07-12T13:17:56;24.90;94.20
22065;DHT22;11197;53.110;8.468;2022-07-12T13:20:26;25.00;94.50
22065;DHT22;11197;53.110;8.468;2022-07-12T13:22:52;25.00;94.50
22065;DHT22;11197;53.110;8.468;2022-07-12T13:25:19;25.00;95.00
22065;DHT22;11197;53.110;8.468;2022-07-12T13:27:45;25.00;95.00
22065;DHT22;11197;53.110;8.468;2022-07-12T13:30:13;25.00;95.20
22065;DHT22;11197;53.110;8.468;2022-07-12T13:32:40;25.10;95.80
22065;DHT22;11197;53.110;8.468;2022-07-12T13:35:08;25.10;95.70
22065;DHT22;11197;53.110;8.468;2022-07-12T13:37:35;25.20;95.40
22065;DHT22;11197;53.110;8.468;2022-07-12T13:40:02;25.20;95.00
22065;DHT22;11197;53.110;8.468;2022-07-12T13:42:43;25.20;95.00
22065;DHT22;11197;53.110;8.468;2022-07-12T13:45:12;25.30;94.90
22065;DHT22;11197;53.110;8.468;2022-07-12T13:47:38;25.30;93.90
22065;DHT22;11197;53.110;8.468;2022-07-12T13:50:05;25.30;93.30
22065;DHT22;11197;53.110;8.468;2022-07-12T13:52:32;25.40;92.60
22065;DHT22;11197;53.110;8.468;2022-07-12T13:54:58;25.40;92.70
22065;DHT22;11197;53.110;8.468;2022-07-12T13:57:24;25.40;93.10
22065;DHT22;11197;53.110;8.468;2022-07-12T13:59:50;25.50;92.80
22065;DHT22;11197;53.110;8.468;2022-07-12T14:02:17;25.50;91.90
22065;DHT22;11197;53.110;8.468;2022-07-12T14:04:42;25.50;92.20
22065;DHT22;11197;53.110;8.468;2022-07-12T14:07:09;25.50;92.60
22065;DHT22;11197;53.110;8.468;2022-07-12T14:09:35;25.50;93.00
22065;DHT22;11197;53.110;8.468;2022-07-12T14:12:00;25.50;93.40
22065;DHT22;11197;53.110;8.468;2022-07-12T14:14:30;25.50;93.80
22065;DHT22;11197;53.110;8.468;2022-07-12T14:17:21;25.50;94.10
22065;DHT22;11197;53.110;8.468;2022-07-12T14:19:47;25.50;94.90
22065;DHT22;11197;53.110;8.468;2022-07-12T14:22:13;25.60;94.10
22065;DHT22;11197;53.110;8.468;2022-07-12T14:24:39;25.60;94.00
22065;DHT22;11197;53.110;8.468;2022-07-12T14:27:05;25.50;94.40
22065;DHT22;11197;53.110;8.468;2022-07-12T14:29:32;25.50;94.20
22065;DHT22;11197;53.110;8.468;2022-07-12T14:31:58;25.50;94.10
22065;DHT22;11197;53.110;8.468;2022-07-12T14:34:26;25.50;93.50
22065;DHT22;11197;53.110;8.468;2022-07-12T14:36:52;25.50;93.30
22065;DHT22;11197;53.110;8.468;2022-07-12T14:39:18;25.50;92.80
22065;DHT22;11197;53.110;8.468;2022-07-12T14:41:44;25.50;92.40
22065;DHT22;11197;53.110;8.468;2022-07-12T14:44:10;25.40;92.80
22065;DHT22;11197;53.110;8.468;2022-07-12T14:46:37;25.40;93.10
22065;DHT22;11197;53.110;8.468;2022-07-12T14:49:04;25.40;93.00
22065;DHT22;11197;53.110;8.468;2022-07-12T14:51:33;25.40;93.00
22065;DHT22;11197;53.110;8.468;2022-07-12T14:53:59;25.40;93.30
22065;DHT22;11197;53.110;8.468;2022-07-12T14:56:25;25.40;93.70
22065;DHT22;11197;53.110;8.468;2022-07-12T14:58:52;25.50;93.90
22065;DHT22;11197;53.110;8.468;2022-07-12T15:01:18;25.50;93.90
22065;DHT22;11197;53.110;8.468;2022-07-12T15:03:44;25.50;94.30
22065;DHT22;11197;53.110;8.468;2022-07-12T15:06:12;25.50;94.60
22065;DHT22;11197;53.110;8.468;2022-07-12T15:08:40;25.50;94.60
22065;DHT22;11197;53.110;8.468;2022-07-12T15:11:06;25.50;95.10
22065;DHT22;11197;53.110;8.468;2022-07-12T15:13:32;25.50;95.10
22065;DHT22;11197;53.110;8.468;2022-07-12T15:15:59;25.60;95.20
22065;DHT22;11197;53.110;8.468;2022-07-12T15:18:27;25.60;95.50
22065;DHT22;11197;53.110;8.468;2022-07-12T15:20:53;25.60;95.30
22065;DHT22;11197;53.110;8.468;2022-07-12T15:23:19;25.60;95.70
22065;DHT22;11197;53.110;8.468;2022-07-12T15:25:46;25.60;95.90
22065;DHT22;11197;53.110;8.468;2022-07-12T15:28:11;25.70;96.00
22065;DHT22;11197;53.110;8.468;2022-07-12T15:30:38;25.60;96.20
22065;DHT22;11197;53.110;8.468;2022-07-12T15:33:04;25.70;96.40
22065;DHT22;11197;53.110;8.468;2022-07-12T15:35:30;25.60;96.60
22065;DHT22;11197;53.110;8.468;2022-07-12T15:37:56;25.60;96.70
22065;DHT22;11197;53.110;8.468;2022-07-12T15:40:22;25.70;96.80
22065;DHT22;11197;53.110;8.468;2022-07-12T15:42:48;25.70;96.70
22065;DHT22;11197;53.110;8.468;2022-07-12T15:45:14;25.70;96.50
22065;DHT22;11197;53.110;8.468;2022-07-12T15:47:40;25.70;96.10
22065;DHT22;11197;53.110;8.468;2022-07-12T15:50:07;25.70;96.10
22065;DHT22;11197;53.110;8.468;2022-07-12T15:52:34;25.70;96.30